Hooversville, PA (15936)

12:24 PM EST on December 25, 2014 (GMT -0500)
Stoystown | Change Station
CLOSE
Current Station
Personal Weather Station
Location: Stoystown, PA
Elevation: 2172 ft
Nearby Weather Stations

Elev 2172 ft 40.11 °N, 78.94 °W | Updated 4 seconds ago

Overcast
Overcast
35.2 °F
Feels Like 27 °F
N
11.4
Wind Variable Wind from West
Gusts 14.5 mph

Today
High -- | Low -- °F
--% Chance of Precip.
Yesterday
High -- | Low -- °F
Precip. -- in
7:36 AM 4:55 PM
Waxing Crescent, 18% visible
Pressure 29.89 in
Visibility 9.0 miles
Clouds Mostly Cloudy 1500 ft
Overcast 2100 ft
Windchill 27 °F
Dew Point 18 °F
Humidity 49%
Rainfall 0.11 in
Snow Depth Not available.
UV 1 out of 12
Pollen .10 out of 12
Air Quality Not available.
Flu Activity Not available.
SPECI KJST 251713Z AUTO 27017G28KT 9SM BKN015 OVC021 02/M02 A2989 RMK AO2 PK WND 28028/1708 T00171017

More Conditions Fewer Conditions

Pressure 29.89 in
Visibility 9.0 miles
Clouds Mostly Cloudy 1500 ft
Overcast 2100 ft
Windchill 27 °F
Dew Point 18 °F
Humidity 49%
Rainfall 0.11 in
Snow Depth Not available.
UV 1 out of 12
Pollen .10 out of 12
Air Quality Not available.
Flu Activity Not available.
SPECI KJST 251713Z AUTO 27017G28KT 9SM BKN015 OVC021 02/M02 A2989 RMK AO2 PK WND 28028/1708 T00171017

More Conditions Fewer Conditions

10-Day Weather Forecast

Almanac

Astronomy

Dec. 25, 2014 Rise Set
Actual Time
Civil Twilight
Nautical Twilight
Astronomical Twilight
Moon
Length of Visible Light
Length of Day
Tomorrow will be .
, % of the Moon is Illuminated

Today's Extremes

State Highs State Lows

Community

WunderPhotos

Upload Photos

1,780,346 photos uploaded!

WunderBlogs® & News

Nearby

Air Quality

  Air Quality AQ Index Pollutant
Not available.

Snow Depth

Station Depth Elevation

Earthquake Activity

City Distance Mag. Time & Date
Minimum magnitude displayed is 2.5.

Coastal Water Temperatures

Place Temperature

Nearby Weather Stations